createdAt,value
2023-02-15T00:00:04.224Z,21.7
2023-02-15T00:01:04.282Z,21.6
2023-02-15T00:02:04.314Z,21.6
2023-02-15T00:03:04.375Z,21.6
2023-02-15T00:04:04.246Z,21.5
2023-02-15T00:05:04.260Z,21.5
2023-02-15T00:06:04.217Z,21.5
2023-02-15T00:07:04.272Z,21.4
2023-02-15T00:08:04.280Z,21.4
2023-02-15T00:09:04.280Z,21.4
2023-02-15T00:10:04.273Z,21.4
2023-02-15T00:11:04.419Z,21.4
2023-02-15T00:12:04.230Z,21.3
2023-02-15T00:13:04.254Z,21.3
2023-02-15T00:14:04.272Z,21.3
2023-02-15T00:15:04.265Z,21.3
2023-02-15T00:16:04.286Z,21.3
2023-02-15T00:17:04.252Z,21.3
2023-02-15T00:18:04.265Z,21.2
2023-02-15T00:19:04.249Z,21.2
2023-02-15T00:20:04.246Z,21.2
2023-02-15T00:21:04.279Z,21.2
2023-02-15T00:22:04.252Z,21.2
2023-02-15T00:23:04.284Z,21.2
2023-02-15T00:24:04.219Z,21.1
2023-02-15T00:25:04.282Z,21.1
2023-02-15T00:26:04.282Z,21.1
2023-02-15T00:27:04.248Z,21.1
2023-02-15T00:28:04.268Z,21.1
2023-02-15T00:29:04.247Z,21.1
2023-02-15T00:30:04.274Z,21.0
2023-02-15T00:31:04.305Z,21.0
2023-02-15T00:32:04.278Z,21.0
2023-02-15T00:33:04.251Z,21.0
2023-02-15T00:34:04.264Z,21.0
2023-02-15T00:35:04.302Z,21.0
2023-02-15T00:36:04.269Z,20.9
2023-02-15T00:37:04.225Z,20.9
2023-02-15T00:38:04.284Z,20.9
2023-02-15T00:39:04.227Z,20.9
2023-02-15T00:40:04.249Z,20.9
2023-02-15T00:41:04.227Z,20.9
2023-02-15T00:42:04.260Z,20.9
2023-02-15T00:43:04.227Z,20.9
2023-02-15T00:44:04.343Z,20.8
2023-02-15T00:45:04.229Z,20.8
2023-02-15T00:46:04.547Z,20.8
2023-02-15T00:47:04.251Z,20.8
2023-02-15T00:48:04.272Z,20.8
2023-02-15T00:49:04.249Z,20.8
2023-02-15T00:50:04.332Z,20.7
2023-02-15T00:51:04.228Z,20.7
2023-02-15T00:52:04.253Z,20.7
2023-02-15T00:54:56.456Z,20.4
2023-02-15T00:55:04.132Z,20.4
2023-02-15T00:56:05.030Z,20.6
2023-02-15T00:57:04.155Z,20.6
2023-02-15T00:58:04.157Z,20.6
2023-02-15T00:59:04.145Z,20.6
2023-02-15T01:00:04.163Z,20.6
2023-02-15T01:01:04.193Z,20.6
2023-02-15T01:02:04.226Z,20.6
2023-02-15T01:03:04.138Z,20.6
2023-02-15T01:04:04.223Z,20.6
2023-02-15T01:05:04.131Z,20.5
2023-02-15T01:06:04.190Z,20.5
2023-02-15T01:07:04.125Z,20.5
2023-02-15T01:08:04.173Z,20.5
2023-02-15T01:09:04.158Z,20.5
2023-02-15T01:10:04.189Z,20.5
2023-02-15T01:11:04.151Z,20.5
2023-02-15T01:12:04.170Z,20.5
2023-02-15T01:13:04.147Z,20.4
2023-02-15T01:14:04.232Z,20.4
2023-02-15T01:15:04.174Z,20.4
2023-02-15T01:16:04.557Z,20.4
2023-02-15T01:17:04.176Z,20.4
2023-02-15T01:18:04.169Z,20.4
2023-02-15T01:19:04.151Z,20.4
2023-02-15T01:20:04.208Z,20.4
2023-02-15T01:21:04.191Z,20.4
2023-02-15T01:22:04.160Z,20.3
2023-02-15T01:23:04.151Z,20.3
2023-02-15T01:24:04.202Z,20.3
2023-02-15T01:25:05.201Z,20.3
2023-02-15T01:26:04.368Z,20.3
2023-02-15T01:27:04.142Z,20.3
2023-02-15T01:28:04.238Z,20.3
2023-02-15T01:29:04.257Z,20.3
2023-02-15T01:30:04.194Z,20.3
2023-02-15T01:31:04.274Z,20.2
2023-02-15T01:32:04.306Z,20.2
2023-02-15T01:33:04.239Z,20.2
2023-02-15T01:34:04.281Z,20.2
2023-02-15T01:35:04.152Z,20.2
2023-02-15T01:36:04.268Z,20.2
2023-02-15T01:37:04.158Z,20.2
2023-02-15T01:38:04.221Z,20.2
2023-02-15T01:39:04.274Z,20.2
2023-02-15T01:40:04.191Z,20.2
2023-02-15T01:41:04.151Z,20.1
2023-02-15T01:42:04.172Z,20.1
2023-02-15T01:43:04.168Z,20.1
2023-02-15T01:44:04.214Z,20.1
2023-02-15T01:45:04.182Z,20.1
2023-02-15T01:46:04.470Z,20.1
2023-02-15T01:47:04.137Z,20.1
2023-02-15T01:48:04.176Z,20.1
2023-02-15T01:49:04.166Z,20.1
2023-02-15T01:50:04.286Z,20.1
2023-02-15T01:51:04.407Z,20.0
2023-02-15T01:52:04.184Z,20.0
2023-02-15T01:53:04.153Z,20.0
2023-02-15T01:54:04.193Z,20.0
2023-02-15T01:55:05.459Z,20.0
2023-02-15T01:56:04.459Z,20.0
2023-02-15T01:57:04.210Z,20.0
2023-02-15T01:58:04.188Z,20.0
2023-02-15T01:59:04.170Z,20.0
2023-02-15T02:00:04.212Z,19.9
2023-02-15T02:01:04.282Z,19.9
2023-02-15T02:02:32.823Z,19.8
2023-02-15T02:03:05.133Z,19.9
2023-02-15T02:04:04.343Z,19.9
2023-02-15T02:05:04.322Z,19.9
2023-02-15T02:06:04.373Z,19.9
2023-02-15T02:07:04.324Z,19.9
2023-02-15T02:08:04.391Z,19.9
2023-02-15T02:09:04.334Z,19.9
2023-02-15T02:10:04.346Z,19.9
2023-02-15T02:11:04.317Z,19.9
2023-02-15T02:12:04.398Z,19.8
2023-02-15T02:13:04.335Z,19.8
2023-02-15T02:14:04.414Z,19.8
2023-02-15T02:15:04.361Z,19.8
2023-02-15T02:16:04.602Z,19.8
2023-02-15T02:17:04.338Z,19.8
2023-02-15T02:18:04.361Z,19.8
2023-02-15T02:19:04.340Z,19.8
2023-02-15T02:20:04.398Z,19.8
2023-02-15T02:21:05.238Z,19.8
2023-02-15T02:22:04.365Z,19.7
2023-02-15T02:23:04.336Z,19.7
2023-02-15T02:24:04.375Z,19.7
2023-02-15T02:25:04.353Z,19.7
2023-02-15T02:26:04.393Z,19.7
2023-02-15T02:27:04.352Z,19.7
2023-02-15T02:28:04.356Z,19.7
2023-02-15T02:29:04.337Z,19.7
2023-02-15T02:30:04.376Z,19.7
2023-02-15T02:31:04.425Z,19.7
2023-02-15T02:32:04.507Z,19.7
2023-02-15T02:33:04.334Z,19.7
2023-02-15T02:34:04.379Z,19.7
2023-02-15T02:35:04.349Z,19.6
2023-02-15T02:36:04.493Z,19.6
2023-02-15T02:37:04.363Z,19.6
2023-02-15T02:38:04.423Z,19.6
2023-02-15T02:39:04.361Z,19.6
2023-02-15T02:40:04.351Z,19.6
2023-02-15T02:41:04.420Z,19.6
2023-02-15T02:42:04.365Z,19.6
2023-02-15T02:43:04.390Z,19.6
2023-02-15T02:44:04.365Z,19.6
2023-02-15T02:45:04.366Z,19.6
2023-02-15T02:46:04.548Z,19.6
2023-02-15T02:47:04.372Z,19.6
2023-02-15T02:48:04.336Z,19.5
2023-02-15T02:49:04.358Z,19.5
2023-02-15T02:50:04.406Z,19.5
2023-02-15T02:51:04.408Z,19.5
2023-02-15T02:52:04.344Z,19.5
2023-02-15T02:53:04.374Z,19.5
2023-02-15T02:54:04.362Z,19.5
2023-02-15T02:55:04.388Z,19.5
2023-02-15T02:56:04.498Z,19.5
2023-02-15T02:57:04.386Z,19.5
2023-02-15T02:58:04.321Z,19.5
2023-02-15T02:59:04.368Z,19.5
2023-02-15T03:00:04.356Z,19.5
2023-02-15T03:01:04.400Z,19.5
2023-02-15T03:02:04.417Z,19.4
2023-02-15T03:03:04.421Z,19.4
2023-02-15T03:04:04.332Z,19.4
2023-02-15T03:05:04.359Z,19.4
2023-02-15T03:06:04.484Z,19.4
2023-02-15T03:07:04.366Z,19.4
2023-02-15T03:08:04.388Z,19.4
2023-02-15T03:09:04.378Z,19.4
2023-02-15T03:10:04.332Z,19.4
2023-02-15T03:11:04.366Z,19.4
2023-02-15T03:12:04.358Z,19.4
2023-02-15T03:13:04.399Z,19.4
2023-02-15T03:14:04.377Z,19.3
2023-02-15T03:15:04.404Z,19.3
2023-02-15T03:16:04.576Z,19.3
2023-02-15T03:17:04.376Z,19.3
2023-02-15T03:18:04.337Z,19.3
2023-02-15T03:19:04.358Z,19.3
2023-02-15T03:20:55.930Z,19.3
2023-02-15T03:21:04.384Z,19.1
2023-02-15T03:22:04.347Z,19.2
2023-02-15T03:23:04.378Z,19.2
2023-02-15T03:24:04.354Z,19.3
2023-02-15T03:25:04.386Z,19.3
2023-02-15T03:26:04.489Z,19.3
2023-02-15T03:27:04.385Z,19.3
2023-02-15T03:28:04.354Z,19.3
2023-02-15T03:29:04.383Z,19.2
2023-02-15T03:30:04.360Z,19.2
2023-02-15T03:31:04.456Z,19.2
2023-02-15T03:32:04.529Z,19.2
2023-02-15T03:33:04.386Z,19.2
2023-02-15T03:34:04.360Z,19.2
2023-02-15T03:35:04.397Z,19.2
2023-02-15T03:36:04.414Z,19.2
2023-02-15T03:37:06.194Z,19.2
2023-02-15T03:38:04.373Z,19.2
2023-02-15T03:39:04.376Z,19.2
2023-02-15T03:40:04.343Z,19.2
2023-02-15T03:41:04.441Z,19.2
2023-02-15T03:42:04.381Z,19.2
2023-02-15T03:43:04.368Z,19.2
2023-02-15T03:44:04.471Z,19.2
2023-02-15T03:45:04.381Z,19.1
2023-02-15T03:46:04.429Z,19.1
2023-02-15T03:47:04.394Z,19.1
2023-02-15T03:48:04.383Z,19.1
2023-02-15T03:49:04.373Z,19.1
2023-02-15T03:50:04.392Z,19.1
2023-02-15T03:51:04.371Z,19.1
2023-02-15T03:52:04.363Z,19.1
2023-02-15T03:53:04.395Z,19.1
2023-02-15T03:54:04.361Z,19.1
2023-02-15T03:55:04.389Z,19.1
2023-02-15T03:56:04.478Z,19.1
2023-02-15T03:57:04.388Z,19.1
2023-02-15T03:58:04.362Z,19.1
2023-02-15T03:59:04.415Z,19.1
2023-02-15T04:00:04.413Z,19.1
2023-02-15T04:01:04.438Z,19.0
2023-02-15T04:02:04.416Z,19.0
2023-02-15T04:03:04.557Z,19.0
2023-02-15T04:04:04.448Z,19.0
2023-02-15T04:05:04.722Z,19.0
2023-02-15T04:06:04.517Z,19.0
2023-02-15T04:07:04.578Z,19.0
2023-02-15T04:08:04.533Z,19.0
2023-02-15T04:09:04.379Z,19.0
2023-02-15T04:10:04.369Z,19.0
2023-02-15T04:11:04.381Z,19.0
2023-02-15T04:12:04.406Z,19.0
2023-02-15T04:13:04.378Z,19.0
2023-02-15T04:14:04.401Z,19.0
2023-02-15T04:15:04.403Z,19.0
2023-02-15T04:16:05.356Z,18.9
2023-02-15T04:17:04.390Z,18.9
2023-02-15T04:18:04.364Z,18.9
2023-02-15T04:19:04.395Z,18.9
2023-02-15T04:20:04.414Z,18.9
2023-02-15T04:21:04.429Z,18.9
2023-02-15T04:22:04.373Z,18.9
2023-02-15T04:23:04.380Z,18.9
2023-02-15T04:24:04.382Z,18.9
2023-02-15T04:25:04.394Z,18.9
2023-02-15T04:26:04.390Z,18.9
2023-02-15T04:27:04.395Z,18.9
2023-02-15T04:28:04.378Z,18.9
2023-02-15T04:29:04.421Z,18.9
2023-02-15T04:30:04.401Z,18.9
2023-02-15T04:31:04.418Z,18.9
2023-02-15T04:32:04.467Z,18.9
2023-02-15T04:34:09.290Z,18.9
2023-02-15T04:34:13.268Z,18.6
2023-02-15T04:35:04.400Z,18.8
2023-02-15T04:36:04.349Z,18.8
2023-02-15T04:37:04.403Z,18.8
2023-02-15T04:38:04.498Z,18.8
2023-02-15T04:39:04.638Z,18.8
2023-02-15T04:40:04.460Z,18.8
2023-02-15T04:41:04.445Z,18.8
2023-02-15T04:42:04.355Z,18.8
2023-02-15T04:43:04.381Z,18.8
2023-02-15T04:44:04.393Z,18.8
2023-02-15T04:45:04.386Z,18.8
2023-02-15T04:46:04.732Z,18.8
2023-02-15T04:47:04.384Z,18.8
2023-02-15T04:48:04.355Z,18.8
2023-02-15T04:49:04.393Z,18.8
2023-02-15T04:50:04.389Z,18.8
2023-02-15T04:51:04.402Z,18.8
2023-02-15T04:52:04.379Z,18.7
2023-02-15T04:53:04.418Z,18.7
2023-02-15T04:54:04.378Z,18.7
2023-02-15T04:55:04.401Z,18.7
2023-02-15T04:56:04.410Z,18.7
2023-02-15T04:57:04.400Z,18.7
2023-02-15T04:58:04.380Z,18.7
2023-02-15T04:59:04.389Z,18.7
2023-02-15T05:00:04.364Z,18.7
2023-02-15T05:01:04.444Z,18.8
2023-02-15T05:02:04.405Z,18.8
2023-02-15T05:03:04.381Z,18.8
2023-02-15T05:04:04.446Z,18.9
2023-02-15T05:05:04.385Z,19.0
2023-02-15T05:06:04.453Z,19.1
2023-02-15T05:07:04.407Z,19.2
2023-02-15T05:08:04.423Z,19.3
2023-02-15T05:09:04.388Z,19.4
2023-02-15T05:10:04.367Z,19.5
2023-02-15T05:11:04.428Z,19.6
2023-02-15T05:12:04.380Z,19.6
2023-02-15T05:13:04.440Z,19.7
2023-02-15T05:14:04.464Z,19.8
2023-02-15T05:15:04.413Z,19.8
2023-02-15T05:16:04.606Z,19.9
2023-02-15T05:17:04.436Z,19.9
2023-02-15T05:18:04.373Z,20.0
2023-02-15T05:19:04.437Z,20.1
2023-02-15T05:20:04.417Z,20.1
2023-02-15T05:21:04.393Z,20.2
2023-02-15T05:22:04.384Z,20.2
2023-02-15T05:23:04.520Z,20.3
2023-02-15T05:24:04.377Z,20.4
2023-02-15T05:25:04.413Z,20.6
2023-02-15T05:26:04.469Z,20.9
2023-02-15T05:29:20.398Z,21.6
2023-02-15T05:30:06.473Z,22.0
2023-02-15T05:31:04.455Z,22.3
2023-02-15T05:32:04.256Z,22.6
2023-02-15T05:33:04.050Z,22.9
2023-02-15T05:34:04.022Z,23.1
2023-02-15T05:35:04.032Z,23.4
2023-02-15T05:36:04.315Z,23.6
2023-02-15T05:37:04.101Z,23.8
2023-02-15T05:38:04.092Z,24.0
2023-02-15T05:39:04.054Z,24.1
2023-02-15T05:40:04.023Z,24.3
2023-02-15T05:41:04.061Z,24.5
2023-02-15T05:42:04.026Z,24.7
2023-02-15T05:43:04.060Z,24.8
2023-02-15T05:44:04.068Z,24.9
2023-02-15T05:45:04.039Z,25.1
2023-02-15T05:46:04.447Z,25.2
2023-02-15T05:47:04.134Z,25.3
2023-02-15T05:48:04.023Z,25.2
2023-02-15T05:49:04.053Z,25.1
2023-02-15T05:50:04.057Z,24.8
2023-02-15T05:51:04.062Z,24.6
2023-02-15T05:52:04.040Z,24.4
2023-02-15T05:53:04.054Z,24.3
2023-02-15T05:54:04.090Z,24.2
2023-02-15T05:55:04.089Z,24.0
2023-02-15T05:56:04.434Z,24.0
2023-02-15T05:57:04.070Z,23.9
2023-02-15T05:58:04.029Z,23.9
2023-02-15T05:59:04.084Z,23.8
2023-02-15T06:00:04.024Z,23.8
2023-02-15T06:01:04.102Z,23.7
2023-02-15T06:02:04.137Z,23.7
2023-02-15T06:03:04.100Z,23.7
2023-02-15T06:04:04.041Z,23.7
2023-02-15T06:05:04.076Z,23.7
2023-02-15T06:06:04.256Z,23.7
2023-02-15T06:07:04.072Z,23.7
2023-02-15T06:08:05.981Z,23.6
2023-02-15T06:09:04.146Z,23.6
2023-02-15T06:10:04.057Z,23.6
2023-02-15T06:11:04.076Z,23.6
2023-02-15T06:12:04.035Z,23.6
2023-02-15T06:13:04.061Z,23.6
2023-02-15T06:14:04.152Z,23.6
2023-02-15T06:15:04.050Z,23.5
2023-02-15T06:16:04.569Z,23.5
2023-02-15T06:17:04.057Z,23.5
2023-02-15T06:18:04.077Z,23.5
2023-02-15T06:19:04.037Z,23.6
2023-02-15T06:20:04.103Z,23.5
2023-02-15T06:21:04.034Z,23.6
2023-02-15T06:22:04.064Z,23.6
2023-02-15T06:23:04.051Z,23.5
2023-02-15T06:24:04.057Z,23.6
2023-02-15T06:25:04.032Z,23.6
2023-02-15T06:26:04.364Z,23.6
2023-02-15T06:27:04.035Z,23.6
2023-02-15T06:28:04.070Z,23.6
2023-02-15T06:29:04.040Z,23.6
2023-02-15T06:30:04.115Z,23.6
2023-02-15T06:31:04.158Z,23.6
2023-02-15T06:32:04.213Z,23.6
2023-02-15T06:33:04.131Z,23.6
2023-02-15T06:34:04.174Z,23.6
2023-02-15T06:35:04.121Z,23.6
2023-02-15T06:36:04.501Z,23.6
2023-02-15T06:37:04.122Z,23.5
2023-02-15T06:38:04.281Z,23.5
2023-02-15T06:39:04.224Z,23.5
2023-02-15T06:40:04.239Z,23.5
2023-02-15T06:41:04.132Z,23.5
2023-02-15T06:42:04.156Z,23.5
2023-02-15T06:43:04.196Z,23.5
2023-02-15T06:44:04.208Z,23.6
2023-02-15T06:45:04.477Z,23.6
2023-02-15T06:46:04.481Z,23.6
2023-02-15T06:47:04.110Z,23.6
2023-02-15T06:48:04.832Z,23.6
2023-02-15T06:49:04.147Z,23.6
2023-02-15T06:51:34.818Z,23.3
2023-02-15T06:52:05.483Z,23.5
2023-02-15T06:53:06.468Z,23.5
2023-02-15T06:54:04.548Z,23.6
2023-02-15T06:55:04.561Z,23.6
2023-02-15T06:56:04.949Z,23.6
2023-02-15T06:57:05.501Z,23.6
2023-02-15T06:58:04.605Z,23.6
2023-02-15T06:59:04.764Z,23.6
2023-02-15T07:00:05.012Z,23.6
2023-02-15T07:01:04.573Z,23.6
2023-02-15T07:02:04.651Z,23.6
2023-02-15T07:03:04.828Z,23.6
2023-02-15T07:04:04.590Z,23.6
2023-02-15T07:05:04.591Z,23.6
2023-02-15T07:06:04.816Z,23.6
2023-02-15T07:07:04.585Z,23.6
2023-02-15T07:08:04.659Z,23.6
2023-02-15T07:09:04.561Z,23.6
2023-02-15T07:10:04.838Z,23.6
2023-02-15T07:11:04.455Z,23.6
2023-02-15T07:12:04.564Z,23.6
2023-02-15T07:13:04.513Z,23.6
2023-02-15T07:14:04.669Z,23.6
2023-02-15T07:15:04.586Z,23.6
2023-02-15T07:16:04.803Z,23.6
2023-02-15T07:17:05.240Z,23.6
2023-02-15T07:18:04.550Z,23.6
2023-02-15T07:19:04.520Z,23.6
2023-02-15T07:20:04.643Z,23.6
2023-02-15T07:21:04.546Z,23.7
2023-02-15T07:22:04.809Z,23.7
2023-02-15T07:23:04.561Z,23.7
2023-02-15T07:24:04.614Z,23.7
2023-02-15T07:25:04.570Z,23.7
2023-02-15T07:26:04.577Z,23.7
2023-02-15T07:27:04.491Z,23.7
2023-02-15T07:28:04.643Z,23.7
2023-02-15T07:29:04.654Z,23.7
2023-02-15T07:30:04.678Z,23.7
2023-02-15T07:31:04.884Z,23.7
2023-02-15T07:32:04.630Z,23.7
2023-02-15T07:33:05.435Z,23.7
2023-02-15T07:34:04.549Z,23.7
2023-02-15T07:35:05.324Z,23.7
2023-02-15T07:36:04.721Z,23.7
2023-02-15T07:37:04.536Z,23.7
2023-02-15T07:38:04.665Z,23.7
2023-02-15T07:39:04.584Z,23.7
2023-02-15T07:40:04.560Z,23.7
2023-02-15T07:41:04.648Z,23.7
2023-02-15T07:42:04.608Z,23.7
2023-02-15T07:43:04.574Z,23.8
2023-02-15T07:44:04.616Z,23.7
2023-02-15T07:45:04.456Z,23.7
2023-02-15T07:46:04.711Z,23.7
2023-02-15T07:47:04.454Z,23.7
2023-02-15T07:48:04.499Z,23.7
2023-02-15T07:49:04.479Z,23.7
2023-02-15T07:50:04.528Z,23.7
2023-02-15T07:51:04.462Z,23.7
2023-02-15T07:52:04.502Z,23.7
2023-02-15T07:53:04.473Z,23.7
2023-02-15T07:54:04.515Z,23.7
2023-02-15T07:55:04.469Z,23.7
2023-02-15T07:56:04.665Z,23.8
2023-02-15T07:57:04.500Z,23.8
2023-02-15T07:58:04.567Z,23.8
2023-02-15T07:59:04.472Z,23.8
2023-02-15T08:00:04.509Z,23.8
2023-02-15T08:01:04.457Z,23.8
2023-02-15T08:02:04.502Z,23.8
2023-02-15T08:03:04.631Z,23.8
2023-02-15T08:04:04.568Z,23.8
2023-02-15T08:05:04.459Z,23.8
2023-02-15T08:06:04.686Z,23.8
2023-02-15T08:07:04.482Z,23.8
2023-02-15T08:08:04.498Z,23.8
2023-02-15T08:09:04.489Z,23.8
2023-02-15T08:10:04.509Z,23.8
2023-02-15T08:11:04.488Z,23.8
2023-02-15T08:12:04.492Z,23.8
2023-02-15T08:13:04.489Z,23.8
2023-02-15T08:14:04.503Z,23.8
2023-02-15T08:15:04.531Z,23.8
2023-02-15T08:16:04.895Z,23.8
2023-02-15T08:17:04.475Z,23.8
2023-02-15T08:18:04.512Z,23.8
2023-02-15T08:19:04.479Z,23.8
2023-02-15T08:20:04.518Z,23.8
2023-02-15T08:21:04.544Z,23.8
2023-02-15T08:22:04.530Z,23.8
2023-02-15T08:23:04.478Z,23.8
2023-02-15T08:24:04.501Z,23.8
2023-02-15T08:25:04.469Z,23.8
2023-02-15T08:26:04.600Z,23.8
2023-02-15T08:27:06.149Z,23.9
2023-02-15T08:28:04.537Z,23.8
2023-02-15T08:29:11.439Z,23.9
2023-02-15T08:30:04.544Z,23.8
2023-02-15T08:31:04.665Z,23.8
2023-02-15T08:32:04.554Z,23.8
2023-02-15T08:33:04.538Z,23.8
2023-02-15T08:34:04.515Z,23.8
2023-02-15T08:35:04.490Z,23.8
2023-02-15T08:36:04.554Z,23.8
2023-02-15T08:37:04.475Z,23.8
2023-02-15T08:38:04.506Z,23.9
2023-02-15T08:39:04.521Z,23.9
2023-02-15T08:40:04.548Z,23.9
2023-02-15T08:41:04.525Z,23.9
2023-02-15T08:42:04.540Z,23.9
2023-02-15T08:43:04.500Z,23.9
2023-02-15T08:44:18.592Z,23.9
2023-02-15T08:45:05.393Z,23.9
2023-02-15T08:46:04.626Z,23.9
2023-02-15T08:47:04.885Z,23.9
2023-02-15T08:48:04.564Z,23.9
2023-02-15T08:49:04.523Z,23.9
2023-02-15T08:50:04.540Z,23.9
2023-02-15T08:51:04.731Z,23.9
2023-02-15T08:52:04.577Z,23.9
2023-02-15T08:53:04.511Z,23.9
2023-02-15T08:54:04.572Z,23.9
2023-02-15T08:55:04.496Z,23.9
2023-02-15T08:56:04.521Z,23.9
2023-02-15T08:57:04.538Z,23.9
2023-02-15T08:58:04.580Z,23.9
2023-02-15T08:59:04.523Z,23.9
2023-02-15T09:00:04.889Z,23.9
2023-02-15T09:01:04.809Z,23.9
2023-02-15T09:02:04.710Z,23.9
2023-02-15T09:03:04.542Z,23.9
2023-02-15T09:04:05.678Z,23.9
2023-02-15T09:05:04.824Z,23.9
2023-02-15T09:06:04.569Z,23.9
2023-02-15T09:07:04.524Z,23.9
2023-02-15T09:08:04.574Z,24.0
2023-02-15T09:09:04.590Z,24.0
2023-02-15T09:10:04.586Z,24.0
2023-02-15T09:11:04.517Z,24.0
2023-02-15T09:12:04.582Z,24.0
2023-02-15T09:13:04.523Z,24.0
2023-02-15T09:14:04.544Z,24.0
2023-02-15T09:15:04.542Z,24.0
2023-02-15T09:16:04.570Z,24.0
2023-02-15T09:17:04.521Z,24.0
2023-02-15T09:18:04.549Z,24.0
2023-02-15T09:19:04.519Z,24.0
2023-02-15T09:20:04.544Z,24.0
2023-02-15T09:21:05.443Z,24.0
2023-02-15T09:22:04.539Z,24.0
2023-02-15T09:23:05.559Z,24.0
2023-02-15T09:24:04.553Z,24.0
2023-02-15T09:25:04.512Z,24.0
2023-02-15T09:26:04.555Z,24.0
2023-02-15T09:27:04.591Z,24.0
2023-02-15T09:28:04.651Z,24.0
2023-02-15T09:29:04.510Z,24.0
2023-02-15T09:30:04.571Z,24.0
2023-02-15T09:31:05.061Z,24.0
2023-02-15T09:32:23.168Z,23.9
2023-02-15T09:33:04.160Z,24.0
2023-02-15T09:34:04.173Z,24.0
2023-02-15T09:35:04.163Z,24.0
2023-02-15T09:36:04.389Z,24.0
2023-02-15T09:37:04.263Z,24.0
2023-02-15T09:38:04.211Z,24.0
2023-02-15T09:39:04.176Z,24.0
2023-02-15T09:40:04.140Z,24.0
2023-02-15T09:41:04.409Z,24.0
2023-02-15T09:42:10.907Z,24.0
2023-02-15T09:43:11.420Z,24.0
2023-02-15T09:44:13.022Z,23.9
2023-02-15T09:45:03.733Z,24.0
2023-02-15T09:46:03.733Z,24.0
2023-02-15T09:47:03.698Z,24.0
2023-02-15T09:48:03.664Z,24.0
2023-02-15T09:49:03.707Z,24.0
2023-02-15T09:50:03.657Z,24.0
2023-02-15T09:51:04.715Z,24.0
2023-02-15T09:52:03.660Z,24.0
2023-02-15T09:53:03.716Z,24.0
2023-02-15T09:54:03.667Z,24.0
2023-02-15T09:55:04.098Z,24.0
2023-02-15T09:56:04.340Z,24.0
2023-02-15T09:57:03.684Z,24.1
2023-02-15T09:58:03.655Z,24.1
2023-02-15T09:59:03.683Z,24.1
2023-02-15T10:00:03.673Z,24.1
2023-02-15T10:01:04.142Z,24.1
2023-02-15T10:02:03.719Z,24.1
2023-02-15T10:03:05.908Z,24.0
2023-02-15T10:04:03.665Z,24.0
2023-02-15T10:05:03.710Z,24.0
2023-02-15T10:06:03.677Z,24.1
2023-02-15T10:07:03.722Z,24.1
2023-02-15T10:08:03.710Z,24.1
2023-02-15T10:09:03.707Z,24.0
2023-02-15T10:10:03.682Z,24.0
2023-02-15T10:11:04.000Z,24.0
2023-02-15T10:12:03.684Z,24.0
2023-02-15T10:13:03.708Z,24.0
2023-02-15T10:14:03.692Z,24.0
2023-02-15T10:15:03.696Z,24.0
2023-02-15T10:16:03.688Z,24.1
2023-02-15T10:17:03.715Z,24.0
2023-02-15T10:18:03.684Z,24.0
2023-02-15T10:19:03.695Z,24.0
2023-02-15T10:20:03.725Z,24.0
2023-02-15T10:21:04.162Z,24.1
2023-02-15T10:22:03.710Z,24.1
2023-02-15T10:23:03.725Z,24.1
2023-02-15T10:24:03.720Z,24.1
2023-02-15T10:25:03.957Z,24.1
2023-02-15T10:26:03.974Z,24.1
2023-02-15T10:27:03.694Z,24.2
2023-02-15T10:28:03.687Z,24.2
2023-02-15T10:29:03.793Z,24.2
2023-02-15T10:30:03.735Z,24.2
2023-02-15T10:31:04.136Z,24.3
2023-02-15T10:32:03.813Z,24.3
2023-02-15T10:33:03.704Z,24.3
2023-02-15T10:34:03.693Z,24.3
2023-02-15T10:35:03.712Z,24.3
2023-02-15T10:36:03.701Z,24.3
2023-02-15T10:37:03.705Z,24.2
2023-02-15T10:38:03.711Z,24.2
2023-02-15T10:39:03.692Z,24.2
2023-02-15T10:40:03.683Z,24.2
2023-02-15T10:41:04.072Z,24.2
2023-02-15T10:42:03.684Z,24.2
2023-02-15T10:43:03.702Z,24.2
2023-02-15T10:44:03.707Z,24.2
2023-02-15T10:45:03.755Z,24.2
2023-02-15T10:46:03.733Z,24.2
2023-02-15T10:47:03.711Z,24.2
2023-02-15T10:48:03.688Z,24.3
2023-02-15T10:49:03.701Z,24.3
2023-02-15T10:50:03.719Z,24.3
2023-02-15T10:51:03.890Z,24.3
2023-02-15T10:52:03.720Z,24.3
2023-02-15T10:53:03.723Z,24.3
2023-02-15T10:54:03.709Z,24.4
2023-02-15T10:55:03.740Z,24.4
2023-02-15T10:56:03.744Z,24.4
2023-02-15T10:57:03.711Z,24.4
2023-02-15T10:58:03.706Z,24.4
2023-02-15T10:59:03.866Z,24.4
2023-02-15T11:00:03.684Z,24.4
2023-02-15T11:01:04.113Z,24.4
2023-02-15T11:02:03.736Z,24.4
2023-02-15T11:03:03.716Z,24.4
2023-02-15T11:04:03.697Z,24.4
2023-02-15T11:05:03.843Z,24.4
2023-02-15T11:06:03.757Z,24.4
2023-02-15T11:07:03.725Z,24.4
2023-02-15T11:08:03.725Z,24.4
2023-02-15T11:09:03.716Z,24.4
2023-02-15T11:10:03.684Z,24.4
2023-02-15T11:11:04.074Z,24.4
2023-02-15T11:12:03.696Z,24.4
2023-02-15T11:13:03.767Z,24.4
2023-02-15T11:14:03.763Z,24.4
2023-02-15T11:15:03.724Z,24.4
2023-02-15T11:16:03.788Z,24.4
2023-02-15T11:17:03.779Z,24.4
2023-02-15T11:18:03.753Z,24.5
2023-02-15T11:19:03.740Z,24.5
2023-02-15T11:20:03.759Z,24.5
2023-02-15T11:21:04.912Z,24.5
2023-02-15T11:22:03.688Z,24.5
2023-02-15T11:23:03.721Z,24.5
2023-02-15T11:24:03.691Z,24.5
2023-02-15T11:25:03.739Z,24.5
2023-02-15T11:26:03.709Z,24.5
2023-02-15T11:27:03.798Z,24.5
2023-02-15T11:28:03.694Z,24.5
2023-02-15T11:29:03.728Z,24.5
2023-02-15T11:30:03.801Z,24.5
2023-02-15T11:31:04.059Z,24.5
2023-02-15T11:32:03.810Z,24.5
2023-02-15T11:33:05.014Z,24.5
2023-02-15T11:34:03.721Z,24.5
2023-02-15T11:35:03.750Z,24.5
2023-02-15T11:36:03.699Z,24.5
2023-02-15T11:37:03.729Z,24.5
2023-02-15T11:38:03.727Z,24.5
2023-02-15T11:39:03.722Z,24.5
2023-02-15T11:40:03.830Z,24.5
2023-02-15T11:41:04.054Z,24.5
2023-02-15T11:42:03.705Z,24.5
2023-02-15T11:43:03.711Z,24.5
2023-02-15T11:44:03.725Z,24.5
2023-02-15T11:45:03.728Z,24.5
2023-02-15T11:46:03.755Z,24.5
2023-02-15T11:47:03.728Z,24.5
2023-02-15T11:48:03.688Z,24.5
2023-02-15T11:49:03.740Z,24.5
2023-02-15T11:50:03.729Z,24.5
2023-02-15T11:51:04.027Z,24.5
2023-02-15T11:52:03.768Z,24.5
2023-02-15T11:53:03.731Z,24.5
2023-02-15T11:54:04.810Z,24.5
2023-02-15T11:55:03.840Z,24.4
2023-02-15T11:56:03.703Z,24.4
2023-02-15T11:57:03.769Z,24.4
2023-02-15T11:59:54.093Z,24.1
2023-02-15T12:00:04.053Z,24.2
2023-02-15T12:01:05.828Z,24.3
2023-02-15T12:02:04.151Z,24.3
2023-02-15T12:03:05.055Z,24.4
2023-02-15T12:04:04.130Z,24.4
2023-02-15T12:05:04.106Z,24.4
2023-02-15T12:06:04.076Z,24.4
2023-02-15T12:07:04.139Z,24.5
2023-02-15T12:08:04.042Z,24.5
2023-02-15T12:09:04.087Z,24.5
2023-02-15T12:10:04.109Z,24.5
2023-02-15T12:11:04.431Z,24.5
2023-02-15T12:12:04.062Z,24.5
2023-02-15T12:13:04.096Z,24.5
2023-02-15T12:14:04.674Z,24.5
2023-02-15T12:15:04.090Z,24.5
2023-02-15T12:16:04.182Z,24.5
2023-02-15T12:17:04.114Z,24.4
2023-02-15T12:18:04.397Z,24.4
2023-02-15T12:19:04.405Z,24.5
2023-02-15T12:20:04.130Z,24.5
2023-02-15T12:21:04.433Z,24.5
2023-02-15T12:22:04.181Z,24.5
2023-02-15T12:23:04.244Z,24.5
2023-02-15T12:24:04.462Z,24.5
2023-02-15T12:25:04.150Z,24.5
2023-02-15T12:26:04.377Z,24.5
2023-02-15T12:27:04.200Z,24.5
2023-02-15T12:28:04.124Z,24.5
2023-02-15T12:29:04.222Z,24.5
2023-02-15T12:30:04.191Z,24.5
2023-02-15T12:31:04.545Z,24.5
2023-02-15T12:32:04.208Z,24.5
2023-02-15T12:33:04.180Z,24.5
2023-02-15T12:34:04.142Z,24.5
2023-02-15T12:35:04.228Z,24.5
2023-02-15T12:36:04.438Z,24.5
2023-02-15T12:37:04.158Z,24.5
2023-02-15T12:38:04.150Z,24.5
2023-02-15T12:39:04.197Z,24.5
2023-02-15T12:40:04.124Z,24.5
2023-02-15T12:41:04.521Z,24.5
2023-02-15T12:42:04.616Z,24.5
2023-02-15T12:43:08.926Z,24.6
2023-02-15T12:44:04.218Z,24.5
2023-02-15T12:45:04.121Z,24.6
2023-02-15T12:46:04.297Z,24.5
2023-02-15T12:47:04.317Z,24.5
2023-02-15T12:48:04.074Z,24.5
2023-02-15T12:49:04.092Z,24.5
2023-02-15T12:50:04.114Z,24.5
2023-02-15T12:51:04.093Z,24.4
2023-02-15T12:52:04.055Z,24.4
2023-02-15T12:53:04.198Z,24.4
2023-02-15T12:54:04.126Z,24.4
2023-02-15T12:55:04.086Z,24.4
2023-02-15T12:56:04.078Z,24.5
2023-02-15T12:57:04.099Z,24.5
2023-02-15T12:58:04.091Z,24.5
2023-02-15T12:59:04.150Z,24.5
2023-02-15T13:00:04.068Z,24.5
2023-02-15T13:01:04.537Z,24.5
2023-02-15T13:02:04.197Z,24.5
2023-02-15T13:03:04.223Z,24.5
2023-02-15T13:04:04.072Z,24.5
2023-02-15T13:05:04.166Z,24.5
2023-02-15T13:06:04.064Z,24.6
2023-02-15T13:07:04.108Z,24.6
2023-02-15T13:08:04.079Z,24.6
2023-02-15T13:09:10.816Z,24.5
2023-02-15T13:10:04.736Z,24.6
2023-02-15T13:11:04.728Z,24.6
2023-02-15T13:12:04.624Z,24.6
2023-02-15T13:13:04.572Z,24.6
2023-02-15T13:14:04.588Z,24.6
2023-02-15T13:15:04.546Z,24.6
2023-02-15T13:16:04.615Z,24.6
2023-02-15T13:17:06.178Z,24.6
2023-02-15T13:18:04.607Z,24.6
2023-02-15T13:19:04.563Z,24.6
2023-02-15T13:20:05.703Z,24.6
2023-02-15T13:21:04.806Z,24.6
2023-02-15T13:22:04.606Z,24.6
2023-02-15T13:23:04.601Z,24.6